sensor_id;sensor_type;location;lat;lon;timestamp;pressure;altitude;pressure_sealevel;temperature;humidity
72525;BME280;60547;48.502;8.996;2023-05-02T00:01:39;98018.91;;;8.70;97.33
72525;BME280;60547;48.502;8.996;2023-05-02T00:04:05;98033.88;;;8.77;97.28
72525;BME280;60547;48.502;8.996;2023-05-02T00:06:31;98030.38;;;8.72;97.38
72525;BME280;60547;48.502;8.996;2023-05-02T00:08:57;98027.22;;;8.70;97.80
72525;BME280;60547;48.502;8.996;2023-05-02T00:11:22;98035.44;;;8.78;98.45
72525;BME280;60547;48.502;8.996;2023-05-02T00:13:49;98020.97;;;8.66;98.86
72525;BME280;60547;48.502;8.996;2023-05-02T00:16:14;98035.44;;;8.78;98.84
72525;BME280;60547;48.502;8.996;2023-05-02T00:18:40;98030.69;;;8.78;98.62
72525;BME280;60547;48.502;8.996;2023-05-02T00:21:06;98011.91;;;8.62;98.20
72525;BME280;60547;48.502;8.996;2023-05-02T00:23:32;98019.03;;;8.63;98.73
72525;BME280;60547;48.502;8.996;2023-05-02T00:25:58;98025.31;;;8.67;98.88
72525;BME280;60547;48.502;8.996;2023-05-02T00:28:23;98022.16;;;8.65;97.88
72525;BME280;60547;48.502;8.996;2023-05-02T00:30:50;98018.34;;;8.56;97.75
72525;BME280;60547;48.502;8.996;2023-05-02T00:33:16;98020.47;;;8.48;97.71
72525;BME280;60547;48.502;8.996;2023-05-02T00:35:41;98027.56;;;8.49;96.96
72525;BME280;60547;48.502;8.996;2023-05-02T00:38:07;98009.19;;;8.32;97.08
72525;BME280;60547;48.502;8.996;2023-05-02T00:40:46;98033.22;;;8.42;97.22
72525;BME280;60547;48.502;8.996;2023-05-02T00:43:13;98036.72;;;8.46;97.02
72525;BME280;60547;48.502;8.996;2023-05-02T00:45:40;98019.47;;;8.35;97.29
72525;BME280;60547;48.502;8.996;2023-05-02T00:48:08;98045.88;;;8.43;96.53
72525;BME280;60547;48.502;8.996;2023-05-02T00:50:38;98044.84;;;8.33;97.01
72525;BME280;60547;48.502;8.996;2023-05-02T00:53:08;98033.03;;;8.26;97.19
72525;BME280;60547;48.502;8.996;2023-05-02T00:55:35;98048.75;;;8.36;97.70
72525;BME280;60547;48.502;8.996;2023-05-02T00:58:03;98025.97;;;8.21;96.61
72525;BME280;60547;48.502;8.996;2023-05-02T01:00:43;98036.22;;;8.24;96.51
72525;BME280;60547;48.502;8.996;2023-05-02T01:03:28;98046.84;;;8.29;97.27
72525;BME280;60547;48.502;8.996;2023-05-02T01:06:30;98035.13;;;8.18;96.79
72525;BME280;60547;48.502;8.996;2023-05-02T01:09:21;98043.34;;;8.25;96.93
72525;BME280;60547;48.502;8.996;2023-05-02T01:14:41;98041.81;;;8.21;96.60
72525;BME280;60547;48.502;8.996;2023-05-02T01:17:10;98037.63;;;8.09;96.82
72525;BME280;60547;48.502;8.996;2023-05-02T01:19:39;98065.56;;;8.22;96.96
72525;BME280;60547;48.502;8.996;2023-05-02T01:22:08;98051.06;;;8.10;96.69
72525;BME280;60547;48.502;8.996;2023-05-02T01:24:42;98061.69;;;8.16;97.39
72525;BME280;60547;48.502;8.996;2023-05-02T01:30:05;98057.34;;;8.15;96.50
72525;BME280;60547;48.502;8.996;2023-05-02T01:32:33;98037.31;;;8.03;96.36
72525;BME280;60547;48.502;8.996;2023-05-02T01:35:02;98043.31;;;7.98;96.31
72525;BME280;60547;48.502;8.996;2023-05-02T01:37:29;98055.03;;;8.09;96.90
72525;BME280;60547;48.502;8.996;2023-05-02T01:39:55;98041.31;;;7.99;97.32
72525;BME280;60547;48.502;8.996;2023-05-02T01:42:24;98050.78;;;8.01;96.82
72525;BME280;60547;48.502;8.996;2023-05-02T01:44:53;98041.38;;;7.95;96.67
72525;BME280;60547;48.502;8.996;2023-05-02T01:47:21;98051.25;;;7.96;97.04
72525;BME280;60547;48.502;8.996;2023-05-02T01:49:47;98045.44;;;7.87;97.16
72525;BME280;60547;48.502;8.996;2023-05-02T01:52:12;98064.38;;;7.92;97.20
72525;BME280;60547;48.502;8.996;2023-05-02T01:54:39;98060.47;;;7.86;96.80
72525;BME280;60547;48.502;8.996;2023-05-02T01:57:06;98058.03;;;7.92;96.29
72525;BME280;60547;48.502;8.996;2023-05-02T01:59:34;98040.81;;;7.77;96.36
72525;BME280;60547;48.502;8.996;2023-05-02T02:02:01;98053.47;;;7.78;95.90
72525;BME280;60547;48.502;8.996;2023-05-02T02:04:28;98073.50;;;7.89;96.26
72525;BME280;60547;48.502;8.996;2023-05-02T02:07:01;98032.22;;;7.68;96.78
72525;BME280;60547;48.502;8.996;2023-05-02T02:09:28;98065.66;;;7.84;96.38
72525;BME280;60547;48.502;8.996;2023-05-02T02:12:25;98068.88;;;7.79;96.91
72525;BME280;60547;48.502;8.996;2023-05-02T02:17:42;98045.78;;;7.59;96.56
72525;BME280;60547;48.502;8.996;2023-05-02T02:20:10;98056.47;;;7.57;96.55
72525;BME280;60547;48.502;8.996;2023-05-02T02:22:38;98049.00;;;7.54;96.25
72525;BME280;60547;48.502;8.996;2023-05-02T02:25:06;98071.00;;;7.68;96.80
72525;BME280;60547;48.502;8.996;2023-05-02T02:27:33;98065.97;;;7.56;96.06
72525;BME280;60547;48.502;8.996;2023-05-02T02:29:59;98071.97;;;7.51;95.58
72525;BME280;60547;48.502;8.996;2023-05-02T02:32:24;98081.03;;;7.55;95.58
72525;BME280;60547;48.502;8.996;2023-05-02T02:34:50;98066.16;;;7.38;96.17
72525;BME280;60547;48.502;8.996;2023-05-02T02:37:18;98084.69;;;7.44;96.30
72525;BME280;60547;48.502;8.996;2023-05-02T02:43:02;98087.91;;;7.39;95.65
72525;BME280;60547;48.502;8.996;2023-05-02T02:48:36;98085.59;;;7.34;94.75
72525;BME280;60547;48.502;8.996;2023-05-02T02:51:09;98093.47;;;7.36;94.97
72525;BME280;60547;48.502;8.996;2023-05-02T02:53:57;98095.84;;;7.37;95.19
72525;BME280;60547;48.502;8.996;2023-05-02T02:56:29;98105.34;;;7.36;95.92
72525;BME280;60547;48.502;8.996;2023-05-02T02:59:03;98100.59;;;7.37;95.87
72525;BME280;60547;48.502;8.996;2023-05-02T03:01:31;98110.91;;;7.33;95.93
72525;BME280;60547;48.502;8.996;2023-05-02T03:03:57;98107.38;;;7.29;96.72
72525;BME280;60547;48.502;8.996;2023-05-02T03:06:24;98115.25;;;7.34;96.76
72525;BME280;60547;48.502;8.996;2023-05-02T03:08:50;98095.59;;;7.21;96.86
72525;BME280;60547;48.502;8.996;2023-05-02T03:11:15;98093.56;;;7.25;96.30
72525;BME280;60547;48.502;8.996;2023-05-02T03:13:41;98120.66;;;7.48;95.72
72525;BME280;60547;48.502;8.996;2023-05-02T03:18:44;98103.09;;;7.21;94.83
72525;BME280;60547;48.502;8.996;2023-05-02T03:21:10;98140.22;;;7.27;95.24
72525;BME280;60547;48.502;8.996;2023-05-02T03:23:35;98137.91;;;7.18;95.52
72525;BME280;60547;48.502;8.996;2023-05-02T03:26:01;98130.06;;;7.13;95.64
72525;BME280;60547;48.502;8.996;2023-05-02T03:28:27;98120.63;;;7.07;95.80
72525;BME280;60547;48.502;8.996;2023-05-02T03:30:52;98132.44;;;7.11;95.52
72525;BME280;60547;48.502;8.996;2023-05-02T03:33:18;98132.06;;;7.09;96.21
72525;BME280;60547;48.502;8.996;2023-05-02T03:35:44;98130.06;;;7.13;95.64
72525;BME280;60547;48.502;8.996;2023-05-02T03:38:10;98154.09;;;7.23;96.15
72525;BME280;60547;48.502;8.996;2023-05-02T03:40:35;98134.00;;;7.12;96.66
72525;BME280;60547;48.502;8.996;2023-05-02T03:43:01;98145.00;;;7.23;96.34
72525;BME280;60547;48.502;8.996;2023-05-02T03:45:26;98150.50;;;7.26;96.93
72525;BME280;60547;48.502;8.996;2023-05-02T03:47:52;98150.88;;;7.28;96.80
72525;BME280;60547;48.502;8.996;2023-05-02T03:50:17;98162.31;;;7.30;97.03
72525;BME280;60547;48.502;8.996;2023-05-02T03:52:43;98148.91;;;7.29;96.92
72525;BME280;60547;48.502;8.996;2023-05-02T03:55:09;98176.50;;;7.39;96.95
72525;BME280;60547;48.502;8.996;2023-05-02T03:57:34;98170.97;;;7.36;97.21
72525;BME280;60547;48.502;8.996;2023-05-02T04:00:00;98156.81;;;7.27;97.46
72525;BME280;60547;48.502;8.996;2023-05-02T04:02:25;98167.88;;;7.30;97.06
72525;BME280;60547;48.502;8.996;2023-05-02T04:04:51;98195.38;;;7.52;96.27
72525;BME280;60547;48.502;8.996;2023-05-02T04:07:17;98193.38;;;7.52;96.59
72525;BME280;60547;48.502;8.996;2023-05-02T04:09:46;98195.84;;;7.43;96.19
72525;BME280;60547;48.502;8.996;2023-05-02T04:12:13;98182.78;;;7.43;96.13
72525;BME280;60547;48.502;8.996;2023-05-02T04:14:39;98191.47;;;7.45;96.19
72525;BME280;60547;48.502;8.996;2023-05-02T04:17:04;98195.78;;;7.50;95.43
72525;BME280;60547;48.502;8.996;2023-05-02T04:19:31;98182.78;;;7.43;96.33
72525;BME280;60547;48.502;8.996;2023-05-02T04:21:56;98209.56;;;7.57;95.69
72525;BME280;60547;48.502;8.996;2023-05-02T04:24:22;98210.34;;;7.58;95.77
72525;BME280;60547;48.502;8.996;2023-05-02T04:26:47;98196.56;;;7.51;96.27
72525;BME280;60547;48.502;8.996;2023-05-02T04:29:13;98197.34;;;7.51;97.16
72525;BME280;60547;48.502;8.996;2023-05-02T04:31:39;98212.72;;;7.59;96.19
72525;BME280;60547;48.502;8.996;2023-05-02T04:34:05;98208.75;;;7.60;95.89
72525;BME280;60547;48.502;8.996;2023-05-02T04:36:31;98210.41;;;7.51;96.34
72525;BME280;60547;48.502;8.996;2023-05-02T04:38:57;98231.31;;;7.59;96.44
72525;BME280;60547;48.502;8.996;2023-05-02T04:41:22;98234.47;;;7.57;96.54
72525;BME280;60547;48.502;8.996;2023-05-02T04:43:48;98172.63;;;7.26;96.85
72525;BME280;60547;48.502;8.996;2023-05-02T04:46:15;98160.94;;;7.08;96.88
72525;BME280;60547;48.502;8.996;2023-05-02T04:48:41;98203.41;;;7.35;97.01
72525;BME280;60547;48.502;8.996;2023-05-02T04:51:09;98195.13;;;7.32;97.42
72525;BME280;60547;48.502;8.996;2023-05-02T04:53:36;98186.03;;;7.31;97.03
72525;BME280;60547;48.502;8.996;2023-05-02T04:56:02;98145.94;;;7.02;97.33
72525;BME280;60547;48.502;8.996;2023-05-02T04:58:27;98247.84;;;7.66;97.07
72525;BME280;60547;48.502;8.996;2023-05-02T05:00:53;98145.94;;;7.05;97.46
72525;BME280;60547;48.502;8.996;2023-05-02T05:03:19;98204.56;;;7.38;97.48
72525;BME280;60547;48.502;8.996;2023-05-02T05:05:45;98233.72;;;7.53;97.72
72525;BME280;60547;48.502;8.996;2023-05-02T05:08:10;98253.00;;;7.67;97.43
72525;BME280;60547;48.502;8.996;2023-05-02T05:10:36;98251.38;;;7.70;98.24
72525;BME280;60547;48.502;8.996;2023-05-02T05:13:01;98247.00;;;7.72;98.66
72525;BME280;60547;48.502;8.996;2023-05-02T05:15:28;98241.81;;;7.78;98.55
72525;BME280;60547;48.502;8.996;2023-05-02T05:17:54;98213.50;;;7.60;98.21
72525;BME280;60547;48.502;8.996;2023-05-02T05:20:19;98209.22;;;7.52;98.47
72525;BME280;60547;48.502;8.996;2023-05-02T05:22:45;98246.53;;;7.81;99.08
72525;BME280;60547;48.502;8.996;2023-05-02T05:25:10;98240.22;;;7.81;99.13
72525;BME280;60547;48.502;8.996;2023-05-02T05:27:36;98260.56;;;8.04;97.83
72525;BME280;60547;48.502;8.996;2023-05-02T05:30:05;98259.06;;;7.96;98.15
72525;BME280;60547;48.502;8.996;2023-05-02T05:32:34;98268.03;;;8.11;98.18
72525;BME280;60547;48.502;8.996;2023-05-02T05:35:00;98242.38;;;8.03;97.90
72525;BME280;60547;48.502;8.996;2023-05-02T05:37:26;98254.16;;;8.11;98.27
72525;BME280;60547;48.502;8.996;2023-05-02T05:39:52;98262.06;;;8.13;97.70
72525;BME280;60547;48.502;8.996;2023-05-02T05:42:17;98262.84;;;8.13;97.54
72525;BME280;60547;48.502;8.996;2023-05-02T05:44:43;98279.72;;;8.33;97.25
72525;BME280;60547;48.502;8.996;2023-05-02T05:47:08;98262.81;;;8.17;97.42
72525;BME280;60547;48.502;8.996;2023-05-02T05:49:33;98274.56;;;8.31;97.25
72525;BME280;60547;48.502;8.996;2023-05-02T05:52:01;98266.28;;;8.28;97.96
72525;BME280;60547;48.502;8.996;2023-05-02T05:54:26;98289.53;;;8.41;97.61
72525;BME280;60547;48.502;8.996;2023-05-02T05:56:52;98291.19;;;8.35;97.65
72525;BME280;60547;48.502;8.996;2023-05-02T05:59:18;98295.16;;;8.34;98.35
72525;BME280;60547;48.502;8.996;2023-05-02T06:01:43;98299.50;;;8.35;98.94
72525;BME280;60547;48.502;8.996;2023-05-02T06:04:09;98304.63;;;8.36;99.39
72525;BME280;60547;48.502;8.996;2023-05-02T06:06:34;98300.69;;;8.34;99.47
72525;BME280;60547;48.502;8.996;2023-05-02T06:09:00;98299.88;;;8.37;98.86
72525;BME280;60547;48.502;8.996;2023-05-02T06:11:26;98302.19;;;8.42;99.01
72525;BME280;60547;48.502;8.996;2023-05-02T06:13:52;98312.00;;;8.50;98.95
72525;BME280;60547;48.502;8.996;2023-05-02T06:16:18;98316.28;;;8.58;99.25
72525;BME280;60547;48.502;8.996;2023-05-02T06:18:45;98311.56;;;8.55;98.96
72525;BME280;60547;48.502;8.996;2023-05-02T06:21:10;98324.16;;;8.63;99.40
72525;BME280;60547;48.502;8.996;2023-05-02T06:23:36;98333.59;;;8.69;99.19
72525;BME280;60547;48.502;8.996;2023-05-02T06:26:03;98305.56;;;8.60;98.39
72525;BME280;60547;48.502;8.996;2023-05-02T06:28:28;98324.00;;;8.78;98.77
72525;BME280;60547;48.502;8.996;2023-05-02T06:31:00;98336.22;;;8.84;98.41
72525;BME280;60547;48.502;8.996;2023-05-02T06:33:28;98323.91;;;8.85;98.42
72525;BME280;60547;48.502;8.996;2023-05-02T06:35:53;98330.13;;;8.96;96.75
72525;BME280;60547;48.502;8.996;2023-05-02T06:38:19;98319.09;;;8.89;96.87
72525;BME280;60547;48.502;8.996;2023-05-02T06:40:45;98333.69;;;8.96;97.28
72525;BME280;60547;48.502;8.996;2023-05-02T06:43:11;98336.41;;;9.00;97.12
72525;BME280;60547;48.502;8.996;2023-05-02T06:45:37;98349.78;;;9.09;97.46
72525;BME280;60547;48.502;8.996;2023-05-02T06:48:03;98351.41;;;9.06;97.34
72525;BME280;60547;48.502;8.996;2023-05-02T06:50:29;98339.50;;;9.05;96.55
72525;BME280;60547;48.502;8.996;2023-05-02T06:52:54;98340.31;;;9.06;95.85
72525;BME280;60547;48.502;8.996;2023-05-02T06:55:20;98355.25;;;9.16;96.71
72525;BME280;60547;48.502;8.996;2023-05-02T06:57:47;98359.09;;;9.25;97.67
72525;BME280;60547;48.502;8.996;2023-05-02T07:00:15;98361.41;;;9.30;96.39
72525;BME280;60547;48.502;8.996;2023-05-02T07:02:40;98347.28;;;9.18;95.84
72525;BME280;60547;48.502;8.996;2023-05-02T07:05:06;98370.09;;;9.32;96.44
72525;BME280;60547;48.502;8.996;2023-05-02T07:07:31;98362.94;;;9.35;96.31
72525;BME280;60547;48.502;8.996;2023-05-02T07:09:57;98373.66;;;9.33;97.55
72525;BME280;60547;48.502;8.996;2023-05-02T07:12:22;98350.34;;;9.27;98.59
72525;BME280;60547;48.502;8.996;2023-05-02T07:14:48;98346.38;;;9.28;98.81
72525;BME280;60547;48.502;8.996;2023-05-02T07:17:13;98368.81;;;9.41;97.53
72525;BME280;60547;48.502;8.996;2023-05-02T07:19:39;98381.78;;;9.51;97.34
72525;BME280;60547;48.502;8.996;2023-05-02T07:22:05;98367.13;;;9.47;97.35
72525;BME280;60547;48.502;8.996;2023-05-02T07:24:31;98361.97;;;9.49;97.33
72525;BME280;60547;48.502;8.996;2023-05-02T07:26:57;98362.28;;;9.54;97.02
72525;BME280;60547;48.502;8.996;2023-05-02T07:29:22;98370.47;;;9.65;98.03
72525;BME280;60547;48.502;8.996;2023-05-02T07:31:48;98375.06;;;9.75;98.17
72525;BME280;60547;48.502;8.996;2023-05-02T07:34:14;98379.22;;;9.90;97.78
72525;BME280;60547;48.502;8.996;2023-05-02T07:36:39;98371.72;;;9.87;97.54
72525;BME280;60547;48.502;8.996;2023-05-02T07:39:05;98375.97;;;9.95;95.60
72525;BME280;60547;48.502;8.996;2023-05-02T07:41:30;98377.84;;;10.02;96.18
72525;BME280;60547;48.502;8.996;2023-05-02T07:43:56;98389.53;;;10.17;95.52
72525;BME280;60547;48.502;8.996;2023-05-02T07:46:22;98400.09;;;10.29;95.13
72525;BME280;60547;48.502;8.996;2023-05-02T07:48:48;98392.66;;;10.19;93.60
72525;BME280;60547;48.502;8.996;2023-05-02T07:51:14;98372.34;;;10.25;94.27
72525;BME280;60547;48.502;8.996;2023-05-02T07:53:39;98372.38;;;10.22;94.66
72525;BME280;60547;48.502;8.996;2023-05-02T07:56:06;98375.91;;;10.26;94.39
72525;BME280;60547;48.502;8.996;2023-05-02T07:58:34;98377.34;;;10.34;94.43
72525;BME280;60547;48.502;8.996;2023-05-02T08:01:00;98396.09;;;10.53;93.61
72525;BME280;60547;48.502;8.996;2023-05-02T08:03:25;98401.59;;;10.57;92.61
72525;BME280;60547;48.502;8.996;2023-05-02T08:05:52;98394.41;;;10.59;93.18
72525;BME280;60547;48.502;8.996;2023-05-02T08:08:17;98403.97;;;10.58;91.27
72525;BME280;60547;48.502;8.996;2023-05-02T08:10:43;98413.88;;;10.83;91.81
72525;BME280;60547;48.502;8.996;2023-05-02T08:13:10;98399.59;;;10.81;91.58
72525;BME280;60547;48.502;8.996;2023-05-02T08:15:35;98407.69;;;10.72;92.45
72525;BME280;60547;48.502;8.996;2023-05-02T08:18:01;98408.94;;;10.90;89.33
72525;BME280;60547;48.502;8.996;2023-05-02T08:20:26;98418.25;;;11.04;90.76
72525;BME280;60547;48.502;8.996;2023-05-02T08:22:52;98426.44;;;10.91;90.68
72525;BME280;60547;48.502;8.996;2023-05-02T08:25:17;98428.00;;;10.92;92.68
72525;BME280;60547;48.502;8.996;2023-05-02T08:27:44;98419.75;;;11.08;91.56
72525;BME280;60547;48.502;8.996;2023-05-02T08:30:10;98422.69;;;11.21;90.85
72525;BME280;60547;48.502;8.996;2023-05-02T08:32:35;98426.97;;;11.25;90.86
72525;BME280;60547;48.502;8.996;2023-05-02T08:35:01;98426.47;;;11.30;90.32
72525;BME280;60547;48.502;8.996;2023-05-02T08:37:27;98422.47;;;11.31;91.09
72525;BME280;60547;48.502;8.996;2023-05-02T08:39:52;98426.91;;;11.49;91.76
72525;BME280;60547;48.502;8.996;2023-05-02T08:42:20;98410.97;;;11.49;87.81
72525;BME280;60547;48.502;8.996;2023-05-02T08:44:47;98418.69;;;11.42;87.74
72525;BME280;60547;48.502;8.996;2023-05-02T08:47:14;98415.03;;;11.45;91.52
72525;BME280;60547;48.502;8.996;2023-05-02T08:49:41;98406.81;;;11.38;91.24
72525;BME280;60547;48.502;8.996;2023-05-02T08:52:08;98415.97;;;11.58;89.18
72525;BME280;60547;48.502;8.996;2023-05-02T08:54:36;98427.03;;;11.61;89.94
72525;BME280;60547;48.502;8.996;2023-05-02T08:57:03;98415.25;;;11.34;88.27
72525;BME280;60547;48.502;8.996;2023-05-02T08:59:29;98428.25;;;11.41;89.04
72525;BME280;60547;48.502;8.996;2023-05-02T09:01:58;98426.03;;;11.52;87.91
72525;BME280;60547;48.502;8.996;2023-05-02T09:04:30;98435.41;;;11.42;88.89
72525;BME280;60547;48.502;8.996;2023-05-02T09:06:57;98422.19;;;11.46;87.43
72525;BME280;60547;48.502;8.996;2023-05-02T09:09:23;98432.63;;;11.42;90.77
72525;BME280;60547;48.502;8.996;2023-05-02T09:11:50;98449.25;;;11.85;88.16
72525;BME280;60547;48.502;8.996;2023-05-02T09:14:16;98448.06;;;12.02;88.19
72525;BME280;60547;48.502;8.996;2023-05-02T09:16:42;98443.41;;;12.15;85.27
72525;BME280;60547;48.502;8.996;2023-05-02T09:19:08;98449.88;;;12.28;87.75
72525;BME280;60547;48.502;8.996;2023-05-02T09:21:38;98445.75;;;12.17;84.15
72525;BME280;60547;48.502;8.996;2023-05-02T09:24:20;98444.28;;;12.28;84.62
72525;BME280;60547;48.502;8.996;2023-05-02T09:26:58;98450.34;;;12.07;83.66
72525;BME280;60547;48.502;8.996;2023-05-02T09:29:26;98427.00;;;12.17;86.54
72525;BME280;60547;48.502;8.996;2023-05-02T09:31:52;98427.09;;;12.14;84.47
72525;BME280;60547;48.502;8.996;2023-05-02T09:34:20;98422.03;;;12.25;84.46
72525;BME280;60547;48.502;8.996;2023-05-02T09:36:47;98432.78;;;12.43;84.67
72525;BME280;60547;48.502;8.996;2023-05-02T09:39:24;98437.56;;;12.42;84.03
72525;BME280;60547;48.502;8.996;2023-05-02T09:41:50;98420.75;;;12.46;85.46
72525;BME280;60547;48.502;8.996;2023-05-02T09:44:20;98441.84;;;12.79;83.19
72525;BME280;60547;48.502;8.996;2023-05-02T09:46:48;98442.00;;;12.88;81.35
72525;BME280;60547;48.502;8.996;2023-05-02T09:49:14;98440.34;;;12.91;81.28
72525;BME280;60547;48.502;8.996;2023-05-02T09:51:43;98438.25;;;12.79;82.92
72525;BME280;60547;48.502;8.996;2023-05-02T09:54:09;98425.97;;;12.60;80.34
72525;BME280;60547;48.502;8.996;2023-05-02T09:56:52;98446.25;;;12.93;80.60
72525;BME280;60547;48.502;8.996;2023-05-02T09:59:18;98441.53;;;13.06;80.51
72525;BME280;60547;48.502;8.996;2023-05-02T10:01:44;98426.31;;;13.07;82.11
72525;BME280;60547;48.502;8.996;2023-05-02T10:04:13;98443.56;;;13.35;81.41
72525;BME280;60547;48.502;8.996;2023-05-02T10:06:43;98443.63;;;13.18;77.86
72525;BME280;60547;48.502;8.996;2023-05-02T10:09:09;98429.22;;;13.20;82.18
72525;BME280;60547;48.502;8.996;2023-05-02T10:11:46;98431.50;;;13.38;80.10
72525;BME280;60547;48.502;8.996;2023-05-02T10:14:15;98427.97;;;13.21;78.85
72525;BME280;60547;48.502;8.996;2023-05-02T10:16:54;98448.53;;;12.98;81.64
72525;BME280;60547;48.502;8.996;2023-05-02T10:19:29;98429.84;;;12.95;83.47
72525;BME280;60547;48.502;8.996;2023-05-02T10:21:57;98430.00;;;13.04;81.23
72525;BME280;60547;48.502;8.996;2023-05-02T10:24:23;98446.22;;;13.09;80.02
72525;BME280;60547;48.502;8.996;2023-05-02T10:26:50;98438.47;;;13.01;80.49
72525;BME280;60547;48.502;8.996;2023-05-02T10:29:16;98428.97;;;12.98;82.36
72525;BME280;60547;48.502;8.996;2023-05-02T10:31:42;98431.91;;;13.65;79.73
72525;BME280;60547;48.502;8.996;2023-05-02T10:34:10;98428.63;;;14.21;75.19
72525;BME280;60547;48.502;8.996;2023-05-02T10:36:35;98435.78;;;14.60;74.89
72525;BME280;60547;48.502;8.996;2023-05-02T10:39:01;98426.56;;;15.07;70.89
72525;BME280;60547;48.502;8.996;2023-05-02T10:41:29;98428.88;;;15.43;74.34
72525;BME280;60547;48.502;8.996;2023-05-02T10:43:56;98426.69;;;15.60;73.32
72525;BME280;60547;48.502;8.996;2023-05-02T10:46:36;98418.78;;;15.24;68.94
72525;BME280;60547;48.502;8.996;2023-05-02T10:49:08;98423.06;;;15.15;70.89
72525;BME280;60547;48.502;8.996;2023-05-02T10:51:36;98424.59;;;14.95;68.80
72525;BME280;60547;48.502;8.996;2023-05-02T11:01:52;98425.25;;;14.51;71.91
72525;BME280;60547;48.502;8.996;2023-05-02T11:04:18;98411.47;;;14.19;73.17
72525;BME280;60547;48.502;8.996;2023-05-02T11:11:48;98418.06;;;13.87;76.12
72525;BME280;60547;48.502;8.996;2023-05-02T11:24:49;98413.28;;;14.00;74.51
72525;BME280;60547;48.502;8.996;2023-05-02T11:30:06;98414.63;;;13.96;74.16
72525;BME280;60547;48.502;8.996;2023-05-02T11:35:23;98400.06;;;14.86;70.60
72525;BME280;60547;48.502;8.996;2023-05-02T11:37:52;98402.53;;;15.84;70.38
72525;BME280;60547;48.502;8.996;2023-05-02T11:40:18;98390.69;;;15.89;67.71
72525;BME280;60547;48.502;8.996;2023-05-02T11:42:44;98397.50;;;15.79;68.19
72525;BME280;60547;48.502;8.996;2023-05-02T11:45:09;98392.56;;;15.61;68.81
72525;BME280;60547;48.502;8.996;2023-05-02T11:47:35;98389.44;;;15.59;66.03
72525;BME280;60547;48.502;8.996;2023-05-02T11:50:04;98389.69;;;15.52;67.64
72525;BME280;60547;48.502;8.996;2023-05-02T11:52:29;98402.00;;;16.07;67.68
72525;BME280;60547;48.502;8.996;2023-05-02T11:54:56;98384.84;;;16.55;65.89
72525;BME280;60547;48.502;8.996;2023-05-02T11:57:22;98396.25;;;16.11;59.41
72525;BME280;60547;48.502;8.996;2023-05-02T11:59:57;98386.97;;;16.32;57.63
72525;BME280;60547;48.502;8.996;2023-05-02T12:05:06;98386.75;;;17.77;56.72
72525;BME280;60547;48.502;8.996;2023-05-02T12:07:39;98382.19;;;18.21;55.69
72525;BME280;60547;48.502;8.996;2023-05-02T12:10:08;98380.06;;;17.47;54.63
72525;BME280;60547;48.502;8.996;2023-05-02T12:12:35;98375.56;;;17.13;54.17
72525;BME280;60547;48.502;8.996;2023-05-02T12:15:08;98368.66;;;17.32;56.69
72525;BME280;60547;48.502;8.996;2023-05-02T12:17:42;98373.31;;;17.71;54.98
72525;BME280;60547;48.502;8.996;2023-05-02T12:20:09;98371.78;;;17.43;53.06
72525;BME280;60547;48.502;8.996;2023-05-02T12:22:36;98391.78;;;16.81;54.05
72525;BME280;60547;48.502;8.996;2023-05-02T12:25:03;98382.31;;;16.38;54.97
72525;BME280;60547;48.502;8.996;2023-05-02T12:27:29;98386.94;;;15.83;58.03
72525;BME280;60547;48.502;8.996;2023-05-02T12:29:54;98360.84;;;15.73;57.69
72525;BME280;60547;48.502;8.996;2023-05-02T12:32:29;98390.59;;;15.71;56.14
72525;BME280;60547;48.502;8.996;2023-05-02T12:34:56;98378.31;;;15.56;55.29
72525;BME280;60547;48.502;8.996;2023-05-02T12:37:23;98387.34;;;15.50;55.07
72525;BME280;60547;48.502;8.996;2023-05-02T12:39:49;98380.56;;;15.61;60.21
72525;BME280;60547;48.502;8.996;2023-05-02T12:42:16;98380.56;;;15.61;56.94
72525;BME280;60547;48.502;8.996;2023-05-02T12:44:44;98375.41;;;15.37;57.29
72525;BME280;60547;48.502;8.996;2023-05-02T12:47:11;98366.31;;;15.55;55.81
72525;BME280;60547;48.502;8.996;2023-05-02T12:49:50;98365.19;;;16.64;54.09
72525;BME280;60547;48.502;8.996;2023-05-02T12:52:17;98363.03;;;17.32;53.48
72525;BME280;60547;48.502;8.996;2023-05-02T12:54:43;98364.41;;;18.06;53.63
72525;BME280;60547;48.502;8.996;2023-05-02T12:57:09;98365.25;;;18.54;49.40
72525;BME280;60547;48.502;8.996;2023-05-02T12:59:35;98356.09;;;18.92;49.93
72525;BME280;60547;48.502;8.996;2023-05-02T13:02:01;98362.06;;;18.70;49.25
72525;BME280;60547;48.502;8.996;2023-05-02T13:04:33;98373.91;;;18.98;49.32
72525;BME280;60547;48.502;8.996;2023-05-02T13:06:59;98368.06;;;17.97;51.06
72525;BME280;60547;48.502;8.996;2023-05-02T13:09:25;98365.50;;;17.48;52.42
72525;BME280;60547;48.502;8.996;2023-05-02T13:11:51;98377.59;;;17.12;52.83
72525;BME280;60547;48.502;8.996;2023-05-02T13:14:18;98377.09;;;16.86;56.97
72525;BME280;60547;48.502;8.996;2023-05-02T13:16:45;98383.88;;;16.48;54.07
72525;BME280;60547;48.502;8.996;2023-05-02T13:19:10;98379.84;;;16.59;54.18
72525;BME280;60547;48.502;8.996;2023-05-02T13:21:36;98384.34;;;16.38;56.78
72525;BME280;60547;48.502;8.996;2023-05-02T13:24:01;98386.53;;;16.43;58.40
72525;BME280;60547;48.502;8.996;2023-05-02T13:26:28;98391.09;;;16.59;56.30
72525;BME280;60547;48.502;8.996;2023-05-02T13:28:54;98378.13;;;16.52;57.98
72525;BME280;60547;48.502;8.996;2023-05-02T13:31:20;98377.31;;;16.42;57.29
72525;BME280;60547;48.502;8.996;2023-05-02T13:33:46;98366.25;;;16.48;58.44
72525;BME280;60547;48.502;8.996;2023-05-02T13:36:12;98369.53;;;16.46;57.65
72525;BME280;60547;48.502;8.996;2023-05-02T13:38:37;98358.19;;;16.68;54.11
72525;BME280;60547;48.502;8.996;2023-05-02T13:41:03;98354.56;;;17.41;56.40
72525;BME280;60547;48.502;8.996;2023-05-02T13:43:29;98370.03;;;17.46;50.46
72525;BME280;60547;48.502;8.996;2023-05-02T13:45:55;98367.72;;;17.44;51.11
72525;BME280;60547;48.502;8.996;2023-05-02T13:48:20;98375.41;;;17.16;52.54
72525;BME280;60547;48.502;8.996;2023-05-02T13:50:46;98372.75;;;16.94;51.15
72525;BME280;60547;48.502;8.996;2023-05-02T13:53:11;98347.59;;;17.00;55.89
72525;BME280;60547;48.502;8.996;2023-05-02T13:55:37;98334.84;;;17.59;49.65